sensor_id;sensor_type;location;lat;lon;timestamp;P1;durP1;ratioP1;P2;durP2;ratioP2
67747;SDS011;54543;50.712;6.070;2023-03-13T00:01:09;6.43;;;2.45;;
67747;SDS011;54543;50.712;6.070;2023-03-13T00:03:40;3.97;;;1.80;;
67747;SDS011;54543;50.712;6.070;2023-03-13T00:06:06;8.65;;;2.63;;
67747;SDS011;54543;50.712;6.070;2023-03-13T00:08:32;9.85;;;2.90;;
67747;SDS011;54543;50.712;6.070;2023-03-13T00:11:00;10.32;;;2.22;;
67747;SDS011;54543;50.712;6.070;2023-03-13T00:13:27;8.15;;;2.42;;
67747;SDS011;54543;50.712;6.070;2023-03-13T00:16:03;7.78;;;2.03;;
67747;SDS011;54543;50.712;6.070;2023-03-13T00:18:30;9.23;;;2.20;;
67747;SDS011;54543;50.712;6.070;2023-03-13T00:20:59;7.25;;;2.13;;
67747;SDS011;54543;50.712;6.070;2023-03-13T00:23:26;8.80;;;2.03;;
67747;SDS011;54543;50.712;6.070;2023-03-13T00:25:55;7.75;;;2.20;;
67747;SDS011;54543;50.712;6.070;2023-03-13T00:28:29;8.50;;;2.78;;
67747;SDS011;54543;50.712;6.070;2023-03-13T00:31:02;9.55;;;2.50;;
67747;SDS011;54543;50.712;6.070;2023-03-13T00:33:33;7.80;;;1.95;;
67747;SDS011;54543;50.712;6.070;2023-03-13T00:36:01;10.43;;;2.45;;
67747;SDS011;54543;50.712;6.070;2023-03-13T00:38:29;8.25;;;2.08;;
67747;SDS011;54543;50.712;6.070;2023-03-13T00:40:58;9.15;;;2.15;;
67747;SDS011;54543;50.712;6.070;2023-03-13T00:43:25;6.88;;;1.90;;
67747;SDS011;54543;50.712;6.070;2023-03-13T00:45:50;5.53;;;1.80;;
67747;SDS011;54543;50.712;6.070;2023-03-13T00:48:16;8.98;;;2.25;;
67747;SDS011;54543;50.712;6.070;2023-03-13T00:50:41;4.60;;;2.05;;
67747;SDS011;54543;50.712;6.070;2023-03-13T00:53:07;8.07;;;1.88;;
67747;SDS011;54543;50.712;6.070;2023-03-13T00:55:32;4.78;;;1.75;;
67747;SDS011;54543;50.712;6.070;2023-03-13T00:57:58;9.32;;;2.08;;
67747;SDS011;54543;50.712;6.070;2023-03-13T01:00:23;5.47;;;2.00;;
67747;SDS011;54543;50.712;6.070;2023-03-13T01:02:49;7.70;;;2.30;;
67747;SDS011;54543;50.712;6.070;2023-03-13T01:05:14;4.80;;;1.70;;
67747;SDS011;54543;50.712;6.070;2023-03-13T01:07:40;7.78;;;2.25;;
67747;SDS011;54543;50.712;6.070;2023-03-13T01:10:05;3.58;;;1.50;;
67747;SDS011;54543;50.712;6.070;2023-03-13T01:12:31;5.28;;;1.63;;
67747;SDS011;54543;50.712;6.070;2023-03-13T01:14:57;3.03;;;1.27;;
67747;SDS011;54543;50.712;6.070;2023-03-13T01:17:23;4.38;;;1.35;;
67747;SDS011;54543;50.712;6.070;2023-03-13T01:19:48;4.90;;;1.63;;
67747;SDS011;54543;50.712;6.070;2023-03-13T01:22:14;4.70;;;1.50;;
67747;SDS011;54543;50.712;6.070;2023-03-13T01:24:39;4.55;;;1.55;;
67747;SDS011;54543;50.712;6.070;2023-03-13T01:27:05;3.47;;;1.25;;
67747;SDS011;54543;50.712;6.070;2023-03-13T01:29:30;2.60;;;1.30;;
67747;SDS011;54543;50.712;6.070;2023-03-13T01:31:56;3.88;;;1.30;;
67747;SDS011;54543;50.712;6.070;2023-03-13T01:34:21;2.78;;;1.48;;
67747;SDS011;54543;50.712;6.070;2023-03-13T01:36:47;5.28;;;1.38;;
67747;SDS011;54543;50.712;6.070;2023-03-13T01:39:14;4.15;;;1.33;;
67747;SDS011;54543;50.712;6.070;2023-03-13T01:41:40;3.55;;;1.17;;
67747;SDS011;54543;50.712;6.070;2023-03-13T01:44:15;4.50;;;1.35;;
67747;SDS011;54543;50.712;6.070;2023-03-13T01:46:48;3.53;;;1.20;;
67747;SDS011;54543;50.712;6.070;2023-03-13T01:49:15;3.15;;;0.90;;
67747;SDS011;54543;50.712;6.070;2023-03-13T01:59:25;4.80;;;1.50;;
67747;SDS011;54543;50.712;6.070;2023-03-13T02:02:04;1.60;;;1.00;;
67747;SDS011;54543;50.712;6.070;2023-03-13T02:04:33;2.17;;;0.90;;
67747;SDS011;54543;50.712;6.070;2023-03-13T02:07:03;2.83;;;0.80;;
67747;SDS011;54543;50.712;6.070;2023-03-13T02:09:32;3.03;;;0.82;;
67747;SDS011;54543;50.712;6.070;2023-03-13T02:12:09;1.63;;;0.85;;
67747;SDS011;54543;50.712;6.070;2023-03-13T02:14:39;0.80;;;0.50;;
67747;SDS011;54543;50.712;6.070;2023-03-13T02:17:08;1.40;;;0.93;;
67747;SDS011;54543;50.712;6.070;2023-03-13T02:27:33;1.80;;;0.63;;
67747;SDS011;54543;50.712;6.070;2023-03-13T02:29:58;1.08;;;0.70;;
67747;SDS011;54543;50.712;6.070;2023-03-13T02:32:25;0.52;;;0.40;;
67747;SDS011;54543;50.712;6.070;2023-03-13T02:34:55;0.77;;;0.60;;
67747;SDS011;54543;50.712;6.070;2023-03-13T02:37:24;2.05;;;0.70;;
67747;SDS011;54543;50.712;6.070;2023-03-13T02:39:51;0.88;;;0.70;;
67747;SDS011;54543;50.712;6.070;2023-03-13T02:42:19;1.50;;;0.90;;
67747;SDS011;54543;50.712;6.070;2023-03-13T02:44:46;1.45;;;0.80;;
67747;SDS011;54543;50.712;6.070;2023-03-13T02:47:16;2.05;;;0.70;;
67747;SDS011;54543;50.712;6.070;2023-03-13T02:49:42;1.48;;;0.65;;
67747;SDS011;54543;50.712;6.070;2023-03-13T02:52:10;2.13;;;0.80;;
67747;SDS011;54543;50.712;6.070;2023-03-13T02:57:32;1.30;;;0.95;;
67747;SDS011;54543;50.712;6.070;2023-03-13T02:59:59;1.10;;;0.80;;
67747;SDS011;54543;50.712;6.070;2023-03-13T03:02:24;2.22;;;0.85;;
67747;SDS011;54543;50.712;6.070;2023-03-13T03:04:50;1.63;;;1.15;;
67747;SDS011;54543;50.712;6.070;2023-03-13T03:07:15;1.48;;;0.90;;
67747;SDS011;54543;50.712;6.070;2023-03-13T03:09:41;1.73;;;1.20;;
67747;SDS011;54543;50.712;6.070;2023-03-13T03:12:07;1.48;;;1.08;;
67747;SDS011;54543;50.712;6.070;2023-03-13T03:14:33;1.65;;;1.20;;
67747;SDS011;54543;50.712;6.070;2023-03-13T03:16:59;1.23;;;0.90;;
67747;SDS011;54543;50.712;6.070;2023-03-13T03:19:24;1.95;;;1.30;;
67747;SDS011;54543;50.712;6.070;2023-03-13T03:21:50;2.55;;;1.30;;
67747;SDS011;54543;50.712;6.070;2023-03-13T03:24:15;1.50;;;1.10;;
67747;SDS011;54543;50.712;6.070;2023-03-13T03:26:41;1.25;;;0.90;;
67747;SDS011;54543;50.712;6.070;2023-03-13T03:29:06;0.80;;;0.73;;
67747;SDS011;54543;50.712;6.070;2023-03-13T03:31:32;2.05;;;1.23;;
67747;SDS011;54543;50.712;6.070;2023-03-13T03:33:58;2.35;;;1.08;;
67747;SDS011;54543;50.712;6.070;2023-03-13T03:36:24;1.98;;;0.90;;
67747;SDS011;54543;50.712;6.070;2023-03-13T03:38:50;2.42;;;1.20;;
67747;SDS011;54543;50.712;6.070;2023-03-13T03:41:16;0.95;;;0.85;;
67747;SDS011;54543;50.712;6.070;2023-03-13T03:43:43;0.88;;;0.70;;
67747;SDS011;54543;50.712;6.070;2023-03-13T03:46:09;0.68;;;0.65;;
67747;SDS011;54543;50.712;6.070;2023-03-13T03:48:34;2.05;;;0.90;;
67747;SDS011;54543;50.712;6.070;2023-03-13T03:51:00;1.88;;;0.85;;
67747;SDS011;54543;50.712;6.070;2023-03-13T03:53:25;0.68;;;0.68;;
67747;SDS011;54543;50.712;6.070;2023-03-13T03:55:52;2.05;;;0.82;;
67747;SDS011;54543;50.712;6.070;2023-03-13T03:58:17;0.88;;;0.70;;
67747;SDS011;54543;50.712;6.070;2023-03-13T04:00:44;1.17;;;1.00;;
67747;SDS011;54543;50.712;6.070;2023-03-13T04:03:11;1.00;;;0.77;;
67747;SDS011;54543;50.712;6.070;2023-03-13T04:05:37;1.30;;;0.80;;
67747;SDS011;54543;50.712;6.070;2023-03-13T04:08:03;1.67;;;0.93;;
67747;SDS011;54543;50.712;6.070;2023-03-13T04:10:29;1.02;;;0.80;;
67747;SDS011;54543;50.712;6.070;2023-03-13T04:12:54;1.23;;;0.90;;
67747;SDS011;54543;50.712;6.070;2023-03-13T04:15:20;0.98;;;0.80;;
67747;SDS011;54543;50.712;6.070;2023-03-13T04:17:45;1.60;;;0.82;;
67747;SDS011;54543;50.712;6.070;2023-03-13T04:20:11;1.70;;;0.98;;
67747;SDS011;54543;50.712;6.070;2023-03-13T04:22:38;2.55;;;1.42;;
67747;SDS011;54543;50.712;6.070;2023-03-13T04:25:05;2.67;;;1.40;;
67747;SDS011;54543;50.712;6.070;2023-03-13T04:27:38;1.52;;;1.20;;
67747;SDS011;54543;50.712;6.070;2023-03-13T04:30:04;2.85;;;1.20;;
67747;SDS011;54543;50.712;6.070;2023-03-13T04:32:30;2.13;;;1.40;;
67747;SDS011;54543;50.712;6.070;2023-03-13T04:34:55;1.70;;;1.10;;
67747;SDS011;54543;50.712;6.070;2023-03-13T04:37:21;2.28;;;1.13;;
67747;SDS011;54543;50.712;6.070;2023-03-13T04:39:46;2.20;;;1.42;;
67747;SDS011;54543;50.712;6.070;2023-03-13T04:42:12;2.15;;;1.50;;
67747;SDS011;54543;50.712;6.070;2023-03-13T04:44:37;1.83;;;1.20;;
67747;SDS011;54543;50.712;6.070;2023-03-13T04:47:03;2.10;;;1.50;;
67747;SDS011;54543;50.712;6.070;2023-03-13T04:49:29;1.67;;;1.17;;
67747;SDS011;54543;50.712;6.070;2023-03-13T04:51:55;2.70;;;1.30;;
67747;SDS011;54543;50.712;6.070;2023-03-13T04:54:20;1.75;;;1.35;;
67747;SDS011;54543;50.712;6.070;2023-03-13T04:56:52;2.95;;;1.40;;
67747;SDS011;54543;50.712;6.070;2023-03-13T04:59:17;2.30;;;1.40;;
67747;SDS011;54543;50.712;6.070;2023-03-13T05:01:43;2.20;;;1.30;;
67747;SDS011;54543;50.712;6.070;2023-03-13T05:04:09;2.10;;;1.20;;
67747;SDS011;54543;50.712;6.070;2023-03-13T05:06:35;1.73;;;1.30;;
67747;SDS011;54543;50.712;6.070;2023-03-13T05:09:02;1.85;;;1.20;;
67747;SDS011;54543;50.712;6.070;2023-03-13T05:11:27;2.80;;;1.55;;
67747;SDS011;54543;50.712;6.070;2023-03-13T05:13:53;2.15;;;1.50;;
67747;SDS011;54543;50.712;6.070;2023-03-13T05:16:21;2.65;;;1.88;;
67747;SDS011;54543;50.712;6.070;2023-03-13T05:18:47;3.20;;;1.48;;
67747;SDS011;54543;50.712;6.070;2023-03-13T05:21:12;2.28;;;1.60;;
67747;SDS011;54543;50.712;6.070;2023-03-13T05:23:38;3.30;;;1.88;;
67747;SDS011;54543;50.712;6.070;2023-03-13T05:26:04;2.50;;;1.75;;
67747;SDS011;54543;50.712;6.070;2023-03-13T05:28:34;2.22;;;1.50;;
67747;SDS011;54543;50.712;6.070;2023-03-13T05:31:00;4.15;;;2.10;;
67747;SDS011;54543;50.712;6.070;2023-03-13T05:33:25;3.53;;;2.00;;
67747;SDS011;54543;50.712;6.070;2023-03-13T05:35:51;2.55;;;1.83;;
67747;SDS011;54543;50.712;6.070;2023-03-13T05:38:16;4.38;;;2.22;;
67747;SDS011;54543;50.712;6.070;2023-03-13T05:40:42;5.10;;;2.53;;
67747;SDS011;54543;50.712;6.070;2023-03-13T05:43:08;4.22;;;2.35;;
67747;SDS011;54543;50.712;6.070;2023-03-13T05:45:33;3.72;;;2.55;;
67747;SDS011;54543;50.712;6.070;2023-03-13T05:47:59;3.40;;;1.92;;
67747;SDS011;54543;50.712;6.070;2023-03-13T05:50:25;3.55;;;2.25;;
67747;SDS011;54543;50.712;6.070;2023-03-13T05:52:50;2.88;;;1.88;;
67747;SDS011;54543;50.712;6.070;2023-03-13T05:55:16;3.08;;;1.90;;
67747;SDS011;54543;50.712;6.070;2023-03-13T05:57:43;3.92;;;2.53;;
67747;SDS011;54543;50.712;6.070;2023-03-13T06:00:10;6.43;;;3.42;;
67747;SDS011;54543;50.712;6.070;2023-03-13T06:02:37;10.50;;;6.10;;
67747;SDS011;54543;50.712;6.070;2023-03-13T06:05:02;9.35;;;4.75;;
67747;SDS011;54543;50.712;6.070;2023-03-13T06:07:28;7.63;;;3.50;;
67747;SDS011;54543;50.712;6.070;2023-03-13T06:09:53;6.32;;;3.90;;
67747;SDS011;54543;50.712;6.070;2023-03-13T06:12:19;6.18;;;4.00;;
67747;SDS011;54543;50.712;6.070;2023-03-13T06:14:44;4.40;;;3.40;;
67747;SDS011;54543;50.712;6.070;2023-03-13T06:17:10;8.02;;;5.13;;
67747;SDS011;54543;50.712;6.070;2023-03-13T06:19:35;43.55;;;16.10;;
67747;SDS011;54543;50.712;6.070;2023-03-13T06:22:01;14.50;;;8.52;;
67747;SDS011;54543;50.712;6.070;2023-03-13T06:24:26;10.30;;;6.03;;
67747;SDS011;54543;50.712;6.070;2023-03-13T06:26:52;6.35;;;3.55;;
67747;SDS011;54543;50.712;6.070;2023-03-13T06:29:17;7.85;;;3.97;;
67747;SDS011;54543;50.712;6.070;2023-03-13T06:31:43;6.95;;;4.00;;
67747;SDS011;54543;50.712;6.070;2023-03-13T06:34:10;11.27;;;4.90;;
67747;SDS011;54543;50.712;6.070;2023-03-13T06:36:36;5.43;;;4.07;;
67747;SDS011;54543;50.712;6.070;2023-03-13T06:39:02;7.72;;;5.22;;
67747;SDS011;54543;50.712;6.070;2023-03-13T06:41:28;20.55;;;11.40;;
67747;SDS011;54543;50.712;6.070;2023-03-13T06:43:53;9.50;;;6.20;;
67747;SDS011;54543;50.712;6.070;2023-03-13T06:46:20;8.93;;;4.22;;
67747;SDS011;54543;50.712;6.070;2023-03-13T06:48:47;6.57;;;3.95;;
67747;SDS011;54543;50.712;6.070;2023-03-13T06:51:14;12.48;;;6.63;;
67747;SDS011;54543;50.712;6.070;2023-03-13T06:53:41;29.95;;;25.60;;
67747;SDS011;54543;50.712;6.070;2023-03-13T06:56:07;26.42;;;20.27;;
67747;SDS011;54543;50.712;6.070;2023-03-13T06:58:34;19.60;;;14.85;;
67747;SDS011;54543;50.712;6.070;2023-03-13T07:01:10;14.48;;;11.77;;
67747;SDS011;54543;50.712;6.070;2023-03-13T07:03:37;9.25;;;5.32;;
67747;SDS011;54543;50.712;6.070;2023-03-13T07:06:05;7.63;;;4.40;;
67747;SDS011;54543;50.712;6.070;2023-03-13T07:08:31;8.48;;;4.40;;
67747;SDS011;54543;50.712;6.070;2023-03-13T07:10:58;8.98;;;3.83;;
67747;SDS011;54543;50.712;6.070;2023-03-13T07:13:25;7.90;;;3.90;;
67747;SDS011;54543;50.712;6.070;2023-03-13T07:15:51;6.80;;;3.78;;
67747;SDS011;54543;50.712;6.070;2023-03-13T07:18:17;10.00;;;4.80;;
67747;SDS011;54543;50.712;6.070;2023-03-13T07:20:43;14.32;;;6.93;;
67747;SDS011;54543;50.712;6.070;2023-03-13T07:23:09;11.95;;;6.05;;
67747;SDS011;54543;50.712;6.070;2023-03-13T07:25:34;7.13;;;4.70;;
67747;SDS011;54543;50.712;6.070;2023-03-13T07:28:00;7.43;;;4.47;;
67747;SDS011;54543;50.712;6.070;2023-03-13T07:30:26;10.20;;;4.85;;
67747;SDS011;54543;50.712;6.070;2023-03-13T07:32:52;11.60;;;4.95;;
67747;SDS011;54543;50.712;6.070;2023-03-13T07:35:18;12.60;;;5.90;;
67747;SDS011;54543;50.712;6.070;2023-03-13T07:37:43;11.43;;;7.30;;
67747;SDS011;54543;50.712;6.070;2023-03-13T07:40:11;7.65;;;5.13;;
67747;SDS011;54543;50.712;6.070;2023-03-13T07:42:40;11.15;;;6.28;;
67747;SDS011;54543;50.712;6.070;2023-03-13T07:45:07;11.88;;;5.75;;
67747;SDS011;54543;50.712;6.070;2023-03-13T07:47:33;10.23;;;5.85;;
67747;SDS011;54543;50.712;6.070;2023-03-13T07:49:59;17.98;;;7.93;;
67747;SDS011;54543;50.712;6.070;2023-03-13T07:52:25;11.15;;;5.78;;
67747;SDS011;54543;50.712;6.070;2023-03-13T07:54:52;12.73;;;4.63;;
67747;SDS011;54543;50.712;6.070;2023-03-13T07:57:18;7.30;;;4.05;;
67747;SDS011;54543;50.712;6.070;2023-03-13T07:59:44;6.97;;;4.00;;
67747;SDS011;54543;50.712;6.070;2023-03-13T08:02:10;14.10;;;7.78;;
67747;SDS011;54543;50.712;6.070;2023-03-13T08:04:38;15.95;;;8.15;;
67747;SDS011;54543;50.712;6.070;2023-03-13T08:07:07;11.68;;;4.72;;
67747;SDS011;54543;50.712;6.070;2023-03-13T08:09:36;10.27;;;4.63;;
67747;SDS011;54543;50.712;6.070;2023-03-13T08:12:01;15.38;;;9.02;;
67747;SDS011;54543;50.712;6.070;2023-03-13T08:14:27;9.55;;;6.18;;
67747;SDS011;54543;50.712;6.070;2023-03-13T08:16:52;7.95;;;4.70;;
67747;SDS011;54543;50.712;6.070;2023-03-13T08:19:18;8.23;;;4.50;;
67747;SDS011;54543;50.712;6.070;2023-03-13T08:21:43;11.20;;;5.18;;
67747;SDS011;54543;50.712;6.070;2023-03-13T08:24:10;8.60;;;3.88;;
67747;SDS011;54543;50.712;6.070;2023-03-13T08:26:38;6.55;;;4.13;;
67747;SDS011;54543;50.712;6.070;2023-03-13T08:29:11;7.25;;;3.80;;
67747;SDS011;54543;50.712;6.070;2023-03-13T08:31:47;8.40;;;4.03;;
67747;SDS011;54543;50.712;6.070;2023-03-13T08:34:15;8.38;;;3.53;;
67747;SDS011;54543;50.712;6.070;2023-03-13T08:36:42;7.53;;;3.95;;
67747;SDS011;54543;50.712;6.070;2023-03-13T08:39:14;10.27;;;4.93;;
67747;SDS011;54543;50.712;6.070;2023-03-13T08:41:41;7.80;;;4.68;;
67747;SDS011;54543;50.712;6.070;2023-03-13T08:44:09;7.65;;;3.45;;
67747;SDS011;54543;50.712;6.070;2023-03-13T08:46:36;9.20;;;4.80;;
67747;SDS011;54543;50.712;6.070;2023-03-13T08:49:03;9.40;;;4.22;;
67747;SDS011;54543;50.712;6.070;2023-03-13T08:51:30;7.30;;;3.60;;
67747;SDS011;54543;50.712;6.070;2023-03-13T08:53:56;5.70;;;3.42;;
67747;SDS011;54543;50.712;6.070;2023-03-13T08:56:23;8.43;;;3.40;;
67747;SDS011;54543;50.712;6.070;2023-03-13T08:58:50;5.88;;;4.03;;
67747;SDS011;54543;50.712;6.070;2023-03-13T09:01:18;6.80;;;3.60;;
67747;SDS011;54543;50.712;6.070;2023-03-13T09:03:45;5.82;;;3.92;;
67747;SDS011;54543;50.712;6.070;2023-03-13T09:06:11;5.80;;;3.83;;
67747;SDS011;54543;50.712;6.070;2023-03-13T09:08:37;8.35;;;3.80;;
67747;SDS011;54543;50.712;6.070;2023-03-13T09:11:10;8.13;;;4.05;;
67747;SDS011;54543;50.712;6.070;2023-03-13T09:13:41;8.07;;;4.13;;
67747;SDS011;54543;50.712;6.070;2023-03-13T09:16:11;11.75;;;4.50;;
67747;SDS011;54543;50.712;6.070;2023-03-13T09:18:41;7.00;;;3.80;;
67747;SDS011;54543;50.712;6.070;2023-03-13T09:21:19;6.97;;;3.60;;
67747;SDS011;54543;50.712;6.070;2023-03-13T09:23:46;8.85;;;3.92;;
67747;SDS011;54543;50.712;6.070;2023-03-13T09:26:12;5.75;;;3.80;;
67747;SDS011;54543;50.712;6.070;2023-03-13T09:28:39;5.28;;;3.33;;
67747;SDS011;54543;50.712;6.070;2023-03-13T09:31:12;7.05;;;3.33;;
67747;SDS011;54543;50.712;6.070;2023-03-13T09:33:42;5.85;;;2.78;;
67747;SDS011;54543;50.712;6.070;2023-03-13T09:36:09;6.45;;;3.10;;
67747;SDS011;54543;50.712;6.070;2023-03-13T09:38:35;5.65;;;2.83;;
67747;SDS011;54543;50.712;6.070;2023-03-13T09:41:04;6.53;;;3.38;;
67747;SDS011;54543;50.712;6.070;2023-03-13T09:43:47;5.97;;;3.28;;
67747;SDS011;54543;50.712;6.070;2023-03-13T09:46:15;5.28;;;2.97;;
67747;SDS011;54543;50.712;6.070;2023-03-13T09:48:48;7.70;;;4.38;;
67747;SDS011;54543;50.712;6.070;2023-03-13T09:51:28;6.85;;;3.80;;
67747;SDS011;54543;50.712;6.070;2023-03-13T09:53:58;5.30;;;3.50;;
67747;SDS011;54543;50.712;6.070;2023-03-13T09:56:38;5.60;;;2.95;;
67747;SDS011;54543;50.712;6.070;2023-03-13T09:59:14;3.45;;;2.45;;
67747;SDS011;54543;50.712;6.070;2023-03-13T10:01:43;6.90;;;3.00;;
67747;SDS011;54543;50.712;6.070;2023-03-13T10:06:52;6.22;;;2.80;;
67747;SDS011;54543;50.712;6.070;2023-03-13T10:09:28;4.13;;;2.35;;
67747;SDS011;54543;50.712;6.070;2023-03-13T10:12:05;4.78;;;2.90;;
67747;SDS011;54543;50.712;6.070;2023-03-13T10:19:46;4.72;;;2.75;;
67747;SDS011;54543;50.712;6.070;2023-03-13T10:22:21;4.47;;;2.47;;
67747;SDS011;54543;50.712;6.070;2023-03-13T10:27:43;3.90;;;1.95;;
67747;SDS011;54543;50.712;6.070;2023-03-13T10:30:22;4.65;;;2.55;;
67747;SDS011;54543;50.712;6.070;2023-03-13T10:32:57;4.78;;;2.55;;
67747;SDS011;54543;50.712;6.070;2023-03-13T10:35:30;5.07;;;2.80;;
67747;SDS011;54543;50.712;6.070;2023-03-13T10:37:59;2.97;;;1.98;;
67747;SDS011;54543;50.712;6.070;2023-03-13T10:40:29;4.68;;;2.90;;
67747;SDS011;54543;50.712;6.070;2023-03-13T10:42:59;3.83;;;2.42;;
67747;SDS011;54543;50.712;6.070;2023-03-13T10:45:30;6.75;;;4.50;;
67747;SDS011;54543;50.712;6.070;2023-03-13T10:48:01;6.25;;;3.58;;
67747;SDS011;54543;50.712;6.070;2023-03-13T10:50:37;3.30;;;2.13;;
67747;SDS011;54543;50.712;6.070;2023-03-13T10:55:57;3.33;;;2.58;;
67747;SDS011;54543;50.712;6.070;2023-03-13T11:03:37;2.60;;;1.80;;
67747;SDS011;54543;50.712;6.070;2023-03-13T11:06:03;3.00;;;2.13;;
67747;SDS011;54543;50.712;6.070;2023-03-13T11:08:35;2.80;;;2.00;;
67747;SDS011;54543;50.712;6.070;2023-03-13T11:11:09;2.50;;;1.98;;
67747;SDS011;54543;50.712;6.070;2023-03-13T11:13:44;4.15;;;2.40;;
67747;SDS011;54543;50.712;6.070;2023-03-13T11:21:48;22.98;;;14.93;;
67747;SDS011;54543;50.712;6.070;2023-03-13T11:27:20;35.55;;;23.67;;
67747;SDS011;54543;50.712;6.070;2023-03-13T11:29:56;15.32;;;10.73;;
67747;SDS011;54543;50.712;6.070;2023-03-13T11:32:33;14.50;;;12.10;;
67747;SDS011;54543;50.712;6.070;2023-03-13T11:35:03;10.13;;;7.57;;
67747;SDS011;54543;50.712;6.070;2023-03-13T11:37:35;10.77;;;8.75;;
67747;SDS011;54543;50.712;6.070;2023-03-13T11:40:19;7.82;;;6.20;;
67747;SDS011;54543;50.712;6.070;2023-03-13T12:02:50;6.90;;;4.40;;
67747;SDS011;54543;50.712;6.070;2023-03-13T12:05:20;9.10;;;6.15;;
67747;SDS011;54543;50.712;6.070;2023-03-13T12:10:34;6.20;;;4.75;;
67747;SDS011;54543;50.712;6.070;2023-03-13T12:13:11;7.00;;;5.45;;
67747;SDS011;54543;50.712;6.070;2023-03-13T12:15:50;5.95;;;4.07;;
67747;SDS011;54543;50.712;6.070;2023-03-13T12:18:25;12.52;;;8.30;;
67747;SDS011;54543;50.712;6.070;2023-03-13T12:21:01;9.82;;;6.10;;
67747;SDS011;54543;50.712;6.070;2023-03-13T12:23:47;8.43;;;5.55;;
67747;SDS011;54543;50.712;6.070;2023-03-13T12:26:24;8.75;;;6.22;;
67747;SDS011;54543;50.712;6.070;2023-03-13T12:29:07;6.35;;;3.60;;
67747;SDS011;54543;50.712;6.070;2023-03-13T12:37:24;5.25;;;2.70;;
67747;SDS011;54543;50.712;6.070;2023-03-13T12:39:57;4.30;;;2.85;;
67747;SDS011;54543;50.712;6.070;2023-03-13T12:42:43;4.80;;;2.92;;
67747;SDS011;54543;50.712;6.070;2023-03-13T12:45:26;3.95;;;3.10;;
67747;SDS011;54543;50.712;6.070;2023-03-13T12:56:26;4.05;;;2.50;;
67747;SDS011;54543;50.712;6.070;2023-03-13T13:01:46;4.22;;;2.72;;
67747;SDS011;54543;50.712;6.070;2023-03-13T13:04:26;4.55;;;3.50;;
67747;SDS011;54543;50.712;6.070;2023-03-13T13:07:03;4.43;;;3.03;;
67747;SDS011;54543;50.712;6.070;2023-03-13T13:12:33;3.03;;;2.10;;
67747;SDS011;54543;50.712;6.070;2023-03-13T13:15:00;3.53;;;2.45;;
67747;SDS011;54543;50.712;6.070;2023-03-13T13:19:54;3.38;;;2.38;;
67747;SDS011;54543;50.712;6.070;2023-03-13T13:32:42;3.03;;;2.10;;
67747;SDS011;54543;50.712;6.070;2023-03-13T13:35:18;3.35;;;1.85;;
67747;SDS011;54543;50.712;6.070;2023-03-13T13:37:49;3.58;;;2.55;;
67747;SDS011;54543;50.712;6.070;2023-03-13T13:42:55;3.33;;;2.08;;
67747;SDS011;54543;50.712;6.070;2023-03-13T13:45:32;2.67;;;1.75;;
67747;SDS011;54543;50.712;6.070;2023-03-13T14:02:29;3.47;;;1.88;;
67747;SDS011;54543;50.712;6.070;2023-03-13T14:10:11;3.25;;;2.22;;
67747;SDS011;54543;50.712;6.070;2023-03-13T14:12:57;2.85;;;1.80;;
67747;SDS011;54543;50.712;6.070;2023-03-13T14:15:28;2.50;;;1.60;;
67747;SDS011;54543;50.712;6.070;2023-03-13T14:17:59;2.53;;;1.60;;
67747;SDS011;54543;50.712;6.070;2023-03-13T14:20:36;2.40;;;1.60;;
67747;SDS011;54543;50.712;6.070;2023-03-13T14:23:54;2.17;;;1.42;;
67747;SDS011;54543;50.712;6.070;2023-03-13T14:26:46;2.45;;;1.65;;
67747;SDS011;54543;50.712;6.070;2023-03-13T14:29:14;4.07;;;2.65;;
67747;SDS011;54543;50.712;6.070;2023-03-13T14:31:46;4.28;;;2.20;;
67747;SDS011;54543;50.712;6.070;2023-03-13T14:34:15;2.95;;;1.80;;
67747;SDS011;54543;50.712;6.070;2023-03-13T14:36:57;11.25;;;8.27;;
67747;SDS011;54543;50.712;6.070;2023-03-13T14:39:41;7.65;;;5.43;;
67747;SDS011;54543;50.712;6.070;2023-03-13T14:42:15;12.13;;;7.63;;
67747;SDS011;54543;50.712;6.070;2023-03-13T14:44:43;7.97;;;4.97;;
67747;SDS011;54543;50.712;6.070;2023-03-13T14:47:20;9.35;;;6.80;;
67747;SDS011;54543;50.712;6.070;2023-03-13T14:49:54;5.60;;;3.63;;
67747;SDS011;54543;50.712;6.070;2023-03-13T14:52:23;5.10;;;3.17;;
67747;SDS011;54543;50.712;6.070;2023-03-13T14:54:54;5.82;;;3.70;;
67747;SDS011;54543;50.712;6.070;2023-03-13T14:57:23;6.93;;;5.05;;
67747;SDS011;54543;50.712;6.070;2023-03-13T14:59:51;6.40;;;3.60;;
67747;SDS011;54543;50.712;6.070;2023-03-13T15:02:19;6.60;;;3.70;;
67747;SDS011;54543;50.712;6.070;2023-03-13T15:07:35;6.75;;;4.05;;
67747;SDS011;54543;50.712;6.070;2023-03-13T15:12:47;7.60;;;3.97;;
67747;SDS011;54543;50.712;6.070;2023-03-13T15:15:13;4.32;;;2.85;;
67747;SDS011;54543;50.712;6.070;2023-03-13T15:17:38;8.88;;;5.00;;
67747;SDS011;54543;50.712;6.070;2023-03-13T15:20:04;13.20;;;9.40;;
67747;SDS011;54543;50.712;6.070;2023-03-13T15:22:37;9.60;;;6.30;;
67747;SDS011;54543;50.712;6.070;2023-03-13T15:25:37;6.93;;;4.03;;
67747;SDS011;54543;50.712;6.070;2023-03-13T15:27:56;8.73;;;5.65;;
67747;SDS011;54543;50.712;6.070;2023-03-13T15:30:21;5.65;;;2.75;;
67747;SDS011;54543;50.712;6.070;2023-03-13T15:32:47;4.25;;;2.67;;
67747;SDS011;54543;50.712;6.070;2023-03-13T15:35:27;4.07;;;2.70;;
67747;SDS011;54543;50.712;6.070;2023-03-13T15:37:55;5.95;;;3.00;;
67747;SDS011;54543;50.712;6.070;2023-03-13T15:40:25;4.55;;;2.50;;
67747;SDS011;54543;50.712;6.070;2023-03-13T15:42:52;5.38;;;2.83;;
67747;SDS011;54543;50.712;6.070;2023-03-13T15:45:19;3.58;;;2.33;;
67747;SDS011;54543;50.712;6.070;2023-03-13T15:47:45;3.47;;;2.53;;
67747;SDS011;54543;50.712;6.070;2023-03-13T15:50:12;8.00;;;4.78;;
67747;SDS011;54543;50.712;6.070;2023-03-13T15:52:40;5.60;;;2.97;;
67747;SDS011;54543;50.712;6.070;2023-03-13T15:55:05;4.50;;;3.03;;
67747;SDS011;54543;50.712;6.070;2023-03-13T15:57:32;4.43;;;2.67;;
67747;SDS011;54543;50.712;6.070;2023-03-13T16:00:00;4.68;;;2.33;;
67747;SDS011;54543;50.712;6.070;2023-03-13T16:02:25;3.30;;;2.60;;
67747;SDS011;54543;50.712;6.070;2023-03-13T16:04:51;3.83;;;2.22;;
67747;SDS011;54543;50.712;6.070;2023-03-13T16:07:18;4.32;;;2.25;;
67747;SDS011;54543;50.712;6.070;2023-03-13T16:09:47;5.32;;;2.85;;
67747;SDS011;54543;50.712;6.070;2023-03-13T16:12:13;4.80;;;2.65;;
67747;SDS011;54543;50.712;6.070;2023-03-13T16:14:39;5.45;;;1.90;;
67747;SDS011;54543;50.712;6.070;2023-03-13T16:17:16;5.47;;;2.55;;
67747;SDS011;54543;50.712;6.070;2023-03-13T16:19:44;3.97;;;2.20;;
67747;SDS011;54543;50.712;6.070;2023-03-13T16:22:10;5.15;;;1.80;;
67747;SDS011;54543;50.712;6.070;2023-03-13T16:24:36;4.85;;;1.92;;
67747;SDS011;54543;50.712;6.070;2023-03-13T16:27:04;5.63;;;1.92;;
67747;SDS011;54543;50.712;6.070;2023-03-13T16:29:35;5.13;;;2.40;;
67747;SDS011;54543;50.712;6.070;2023-03-13T16:32:00;6.25;;;2.85;;
67747;SDS011;54543;50.712;6.070;2023-03-13T16:34:26;5.50;;;2.38;;
67747;SDS011;54543;50.712;6.070;2023-03-13T16:36:51;3.58;;;2.05;;
67747;SDS011;54543;50.712;6.070;2023-03-13T16:39:17;4.30;;;2.08;;
67747;SDS011;54543;50.712;6.070;2023-03-13T16:41:43;5.18;;;2.10;;
67747;SDS011;54543;50.712;6.070;2023-03-13T16:44:09;4.88;;;1.70;;
67747;SDS011;54543;50.712;6.070;2023-03-13T16:46:35;5.05;;;2.15;;
67747;SDS011;54543;50.712;6.070;2023-03-13T16:49:02;3.15;;;1.83;;
67747;SDS011;54543;50.712;6.070;2023-03-13T16:51:29;4.28;;;1.83;;
67747;SDS011;54543;50.712;6.070;2023-03-13T16:53:56;5.47;;;2.90;;
67747;SDS011;54543;50.712;6.070;2023-03-13T16:56:27;4.60;;;2.38;;
67747;SDS011;54543;50.712;6.070;2023-03-13T16:58:59;4.68;;;1.80;;
67747;SDS011;54543;50.712;6.070;2023-03-13T17:01:26;4.40;;;1.50;;
67747;SDS011;54543;50.712;6.070;2023-03-13T17:03:53;4.40;;;1.90;;